Time;durP1;ratioP1;P1;durP2;ratioP2;P2;SDS_P1;SDS_P2;PMS_P1;PMS_P2;Temp;Humidity;BMP_temperature;BMP_pressure;BME280_temperature;BME280_humidity;BME280_pressure;Samples;Min_cycle;Max_cycle;Signal;HPM_P1;HPM_P2
2023/08/15 00:02:17;434853.00;1.45;749.73;23685.00;0.08;41.65;;;;;25.50;13.00;;;;;;2277015;61;1122;-81
2023/08/15 00:04:44;261948.00;0.87;452.50;19339.00;0.06;34.13;;;;;25.60;12.90;;;;;;2277149;61;1325;-80
2023/08/15 00:07:11;292888.00;0.98;505.69;0.00;0.00;0.62;;;;;25.40;13.30;;;;;;2277194;61;1156;-80
2023/08/15 00:09:39;306154.00;1.02;528.50;0.00;0.00;0.62;;;;;25.00;14.80;;;;;;2276952;61;1106;-81
2023/08/15 00:12:06;233693.00;0.78;403.90;0.00;0.00;0.62;;;;;25.00;15.30;;;;;;2277055;61;1074;-80
2023/08/15 00:14:33;379676.00;1.27;654.87;55768.00;0.19;97.16;;;;;25.10;14.70;;;;;;2277062;61;2039;-80
2023/08/15 00:17:00;395962.00;1.32;682.86;56583.00;0.19;98.57;;;;;25.20;14.50;;;;;;2276739;61;1129;-80
2023/08/15 00:19:26;319993.00;1.07;552.29;0.00;0.00;0.62;;;;;25.30;13.70;;;;;;2277045;61;1156;-82
2023/08/15 00:21:53;443289.00;1.48;764.24;0.00;0.00;0.62;;;;;25.20;13.80;;;;;;2276751;61;1217;-80
2023/08/15 00:24:20;334189.00;1.11;576.69;0.00;0.00;0.62;;;;;25.30;14.00;;;;;;2276699;61;1371;-80
2023/08/15 00:26:48;732107.00;2.44;1262.96;74945.00;0.25;130.30;;;;;25.40;13.50;;;;;;2277082;61;1152;-80
2023/08/15 00:29:15;465780.00;1.55;802.93;47080.00;0.16;82.14;;;;;25.30;13.90;;;;;;2276549;61;1214;-80
2023/08/15 00:31:41;714008.00;2.38;1231.54;45028.00;0.15;78.59;;;;;25.30;14.00;;;;;;2276439;61;1144;-80
2023/08/15 00:34:08;407395.00;1.36;702.52;20525.00;0.07;36.18;;;;;25.30;14.60;;;;;;2275910;61;1945;-79
2023/08/15 00:36:35;585801.00;1.95;1009.71;47581.00;0.16;83.00;;;;;25.40;14.70;;;;;;2276507;61;1142;-79
2023/08/15 00:39:02;321020.00;1.07;554.05;45874.00;0.15;80.05;;;;;25.30;14.60;;;;;;2276528;61;1062;-80
2023/08/15 00:41:29;779742.00;2.60;1345.82;11040.00;0.04;19.75;;;;;25.40;14.60;;;;;;2276232;61;1173;-80
2023/08/15 00:43:58;639011.00;2.13;1101.63;56821.00;0.19;98.98;;;;;25.30;15.30;;;;;;2276750;61;1335;-81
2023/08/15 00:46:27;335763.00;1.12;579.39;68783.00;0.23;119.66;;;;;25.10;15.60;;;;;;2277206;61;1152;-81
2023/08/15 00:48:55;157950.00;0.53;273.51;16776.00;0.06;29.69;;;;;25.20;15.30;;;;;;2276972;61;1086;-81
2023/08/15 00:51:22;246234.00;0.82;425.47;0.00;0.00;0.62;;;;;25.20;14.50;;;;;;2277220;61;1152;-81
2023/08/15 00:53:49;182556.00;0.61;315.89;0.00;0.00;0.62;;;;;24.90;16.30;;;;;;2277076;61;1927;-81
2023/08/15 00:56:17;224537.00;0.75;388.15;12089.00;0.04;21.57;;;;;25.00;16.00;;;;;;2276258;61;1128;-80
2023/08/15 00:58:44;224892.00;0.75;388.76;0.00;0.00;0.62;;;;;25.10;15.30;;;;;;2275374;61;1070;-79
2023/08/15 01:01:17;97027.00;0.32;168.44;0.00;0.00;0.62;;;;;25.10;15.30;;;;;;2276404;61;2063;-81
2023/08/15 01:03:45;83128.00;0.28;144.44;0.00;0.00;0.62;;;;;25.10;15.50;;;;;;2277468;61;1364;-81
2023/08/15 01:06:12;76590.00;0.26;133.15;0.00;0.00;0.62;;;;;25.10;15.30;;;;;;2277345;61;1302;-81
2023/08/15 01:08:39;170000.00;0.57;294.27;0.00;0.00;0.62;;;;;25.20;15.00;;;;;;2276912;61;1125;-81
2023/08/15 01:11:05;508421.00;1.69;876.32;21905.00;0.07;38.57;;;;;25.30;14.50;;;;;;2277741;61;1161;-82
2023/08/15 01:13:40;369447.00;1.23;637.29;43428.00;0.14;75.82;;;;;25.40;13.80;;;;;;2276722;61;2020;-80
2023/08/15 01:16:22;356051.00;1.19;614.26;30172.00;0.10;52.88;;;;;25.50;14.20;;;;;;2277199;61;1362;-80
2023/08/15 01:18:56;219037.00;0.73;378.69;0.00;0.00;0.62;;;;;25.40;14.40;;;;;;2276766;61;1203;-80
2023/08/15 01:21:28;0.00;0.00;0.62;0.00;0.00;0.62;;;;;25.30;14.60;;;;;;2277422;61;1142;-80
2023/08/15 01:23:57;0.00;0.00;0.62;0.00;0.00;0.62;;;;;25.20;14.90;;;;;;2276996;61;1432;-80
2023/08/15 01:26:24;205462.00;0.68;355.33;15446.00;0.05;27.38;;;;;25.30;14.20;;;;;;2276462;61;1065;-80
2023/08/15 01:28:51;421072.00;1.40;726.03;21923.00;0.07;38.60;;;;;25.20;13.90;;;;;;2276378;61;1125;-80
2023/08/15 01:31:26;260431.00;0.87;449.89;28873.00;0.10;50.63;;;;;25.10;15.00;;;;;;2276345;61;1249;-81
2023/08/15 01:34:03;68614.00;0.23;119.37;2648.00;0.01;5.21;;;;;25.00;15.10;;;;;;2276372;61;2031;-80
2023/08/15 01:36:36;0.00;0.00;0.62;0.00;0.00;0.62;;;;;25.00;15.00;;;;;;2275852;61;1169;-81
2023/08/15 01:39:07;95351.00;0.32;165.55;0.00;0.00;0.62;;;;;25.00;15.30;;;;;;2276020;61;1146;-80
2023/08/15 01:41:39;59658.00;0.20;103.89;0.00;0.00;0.62;;;;;24.90;15.50;;;;;;2276798;61;1144;-79
2023/08/15 01:44:08;161443.00;0.54;279.53;0.00;0.00;0.62;;;;;24.80;15.30;;;;;;2276173;61;1496;-80
2023/08/15 01:46:36;697893.00;2.33;1203.58;36380.00;0.12;63.62;;;;;24.90;15.40;;;;;;2275892;61;1160;-80
2023/08/15 01:49:02;1051921.00;3.51;1824.65;73509.00;0.25;127.82;;;;;24.80;15.00;;;;;;2275985;61;1044;-80
2023/08/15 01:51:29;951534.00;3.17;1646.82;102295.00;0.34;177.53;;;;;24.50;15.90;;;;;;2276448;61;1191;-80
2023/08/15 01:53:56;979846.00;3.27;1696.81;138318.00;0.46;239.67;;;;;24.60;16.10;;;;;;2276242;61;1921;-81
2023/08/15 01:56:25;719801.00;2.40;1241.59;103886.00;0.35;180.28;;;;;24.70;15.90;;;;;;2276469;61;1182;-81
2023/08/15 01:58:52;872060.00;2.91;1507.10;48850.00;0.16;85.20;;;;;24.80;15.40;;;;;;2276690;61;2104;-81
2023/08/15 02:01:18;399171.00;1.33;688.38;42791.00;0.14;74.72;;;;;24.80;15.40;;;;;;2276503;61;1160;-81
2023/08/15 02:03:45;229942.00;0.77;397.45;29359.00;0.10;51.47;;;;;24.90;15.70;;;;;;2276552;61;1335;-80
2023/08/15 02:06:12;629714.00;2.10;1085.55;19488.00;0.06;34.38;;;;;24.80;15.60;;;;;;2276100;61;1220;-81
2023/08/15 02:08:39;845319.00;2.82;1460.28;143330.00;0.48;248.31;;;;;24.70;15.50;;;;;;2276240;61;1131;-81
2023/08/15 02:11:05;706954.00;2.36;1219.30;84705.00;0.28;147.16;;;;;24.50;16.70;;;;;;2276102;61;1109;-81
2023/08/15 02:13:33;739283.00;2.46;1275.43;124476.00;0.41;215.80;;;;;24.50;16.80;;;;;;2276369;61;1253;-80
2023/08/15 02:16:00;488611.00;1.63;842.22;79716.00;0.27;138.55;;;;;24.60;15.80;;;;;;2277164;61;2013;-81
2023/08/15 02:18:28;589400.00;1.96;1015.92;201324.00;0.67;348.20;;;;;24.40;18.50;;;;;;2276620;61;1310;-81
2023/08/15 02:20:54;298993.00;1.00;516.19;99436.00;0.33;172.60;;;;;24.50;17.30;;;;;;2276396;61;1149;-82
2023/08/15 02:23:21;175775.00;0.59;304.21;62024.00;0.21;107.98;;;;;24.50;17.30;;;;;;2277189;61;1371;-82
2023/08/15 02:25:48;296732.00;0.99;512.30;91575.00;0.31;159.03;;;;;24.60;17.10;;;;;;2276626;61;1062;-81
2023/08/15 02:28:15;232904.00;0.78;402.54;17704.00;0.06;31.29;;;;;24.40;17.70;;;;;;2276605;61;1098;-82
2023/08/15 02:30:43;0.00;0.00;0.62;0.00;0.00;0.62;;;;;24.30;17.90;;;;;;2276429;61;1116;-81
2023/08/15 02:33:10;59207.00;0.20;103.11;0.00;0.00;0.62;;;;;24.20;18.20;;;;;;2276480;61;2047;-81
2023/08/15 02:35:40;215623.00;0.72;372.81;0.00;0.00;0.62;;;;;24.20;18.50;;;;;;2276688;61;1939;-81
2023/08/15 02:38:06;0.00;0.00;0.62;0.00;0.00;0.62;;;;;24.30;18.30;;;;;;2276554;61;1110;-80
2023/08/15 02:40:33;33331.00;0.11;58.35;0.00;0.00;0.62;;;;;24.30;18.00;;;;;;2276344;61;1089;-80
2023/08/15 02:43:00;45965.00;0.15;80.21;0.00;0.00;0.62;;;;;24.50;17.20;;;;;;2276568;61;1906;-81
2023/08/15 02:45:27;0.00;0.00;0.62;0.00;0.00;0.62;;;;;24.50;17.30;;;;;;2276513;61;1180;-81
2023/08/15 02:47:55;0.00;0.00;0.62;0.00;0.00;0.62;;;;;24.50;17.60;;;;;;2276668;61;1095;-81
2023/08/15 02:50:22;43783.00;0.15;76.43;0.00;0.00;0.62;;;;;24.70;17.00;;;;;;2277149;61;1086;-82
2023/08/15 02:52:48;57108.00;0.19;99.48;0.00;0.00;0.62;;;;;24.60;17.00;;;;;;2276341;61;1066;-81
2023/08/15 02:55:15;46189.00;0.15;80.59;0.00;0.00;0.62;;;;;24.70;16.50;;;;;;2276110;61;2027;-81
2023/08/15 02:57:42;342988.00;1.14;591.81;145766.00;0.49;252.51;;;;;24.60;16.00;;;;;;2275881;61;1244;-81
2023/08/15 03:00:10;0.00;0.00;0.62;0.00;0.00;0.62;;;;;24.50;16.60;;;;;;2275681;61;1078;-81
2023/08/15 03:02:37;44457.00;0.15;77.60;0.00;0.00;0.62;;;;;24.50;16.90;;;;;;2276632;61;1161;-81
2023/08/15 03:05:06;89175.00;0.30;154.88;0.00;0.00;0.62;;;;;24.30;16.40;;;;;;2276615;61;1360;-80
2023/08/15 03:07:32;122897.00;0.41;213.08;25473.00;0.08;44.75;;;;;24.30;16.90;;;;;;2276560;61;1186;-81
2023/08/15 03:09:59;905829.00;3.02;1566.36;75034.00;0.25;130.46;;;;;24.40;16.80;;;;;;2276471;61;1110;-81
2023/08/15 03:12:26;1081187.00;3.60;1876.81;150460.00;0.50;260.60;;;;;24.30;17.00;;;;;;2277072;61;1159;-81
2023/08/15 03:14:53;1223566.00;4.08;2132.89;89890.00;0.30;156.12;;;;;24.30;16.80;;;;;;2276566;61;1927;-81
2023/08/15 03:17:21;711692.00;2.37;1227.52;126452.00;0.42;219.21;;;;;24.50;16.40;;;;;;2276419;61;1284;-83
2023/08/15 03:19:48;241507.00;0.81;417.34;65271.00;0.22;113.59;;;;;24.40;16.30;;;;;;2277199;61;1590;-82
2023/08/15 03:22:16;169434.00;0.56;293.29;78010.00;0.26;135.60;;;;;24.20;16.30;;;;;;2277125;61;1163;-82
2023/08/15 03:24:43;252684.00;0.84;436.57;87672.00;0.29;152.29;;;;;24.10;16.80;;;;;;2277351;61;1265;-81
2023/08/15 03:27:10;70319.00;0.23;122.31;0.00;0.00;0.62;;;;;23.80;17.70;;;;;;2277555;61;1126;-81
2023/08/15 03:29:37;101180.00;0.34;175.61;39774.00;0.13;69.50;;;;;23.90;18.10;;;;;;2277691;61;1085;-81
2023/08/15 03:32:04;0.00;0.00;0.62;0.00;0.00;0.62;;;;;24.00;17.80;;;;;;2277191;61;1097;-81
2023/08/15 03:34:30;0.00;0.00;0.62;0.00;0.00;0.62;;;;;24.00;17.90;;;;;;2277114;61;1955;-81
2023/08/15 03:36:57;15004.00;0.05;26.62;0.00;0.00;0.62;;;;;24.10;17.20;;;;;;2277023;61;1118;-81
2023/08/15 03:39:27;0.00;0.00;0.62;0.00;0.00;0.62;;;;;24.20;17.10;;;;;;2277357;61;1028;-80
2023/08/15 03:41:53;0.00;0.00;0.62;0.00;0.00;0.62;;;;;24.20;17.90;;;;;;2277279;61;1085;-82
2023/08/15 03:44:20;475873.00;1.59;820.30;15068.00;0.05;26.73;;;;;24.20;17.80;;;;;;2277078;61;1252;-81
2023/08/15 03:46:47;119630.00;0.40;207.44;22501.00;0.08;39.60;;;;;24.30;16.70;;;;;;2277187;61;1177;-81
2023/08/15 03:49:14;199772.00;0.67;345.53;58298.00;0.19;101.53;;;;;24.30;17.30;;;;;;2277526;61;1169;-81
2023/08/15 03:51:41;0.00;0.00;0.62;0.00;0.00;0.62;;;;;24.30;16.60;;;;;;2277100;61;1240;-81
2023/08/15 03:54:08;1301957.00;4.34;2275.69;133959.00;0.45;232.16;;;;;24.20;16.60;;;;;;2276925;61;1315;-81
2023/08/15 03:56:36;1247935.00;4.16;2177.13;139717.00;0.47;242.08;;;;;23.90;17.30;;;;;;2276951;61;2040;-81
2023/08/15 03:59:03;534143.00;1.78;920.63;72288.00;0.24;125.71;;;;;23.90;17.80;;;;;;2277756;61;1202;-81
2023/08/15 04:01:29;170312.00;0.57;294.80;68087.00;0.23;118.45;;;;;24.00;17.00;;;;;;2277562;61;1216;-83
2023/08/15 04:03:56;83190.00;0.28;144.55;0.00;0.00;0.62;;;;;24.10;17.30;;;;;;2277188;61;1331;-81
2023/08/15 04:06:23;1695.00;0.01;3.56;0.00;0.00;0.62;;;;;24.10;16.60;;;;;;2277643;61;1157;-81
2023/08/15 04:08:50;331870.00;1.11;572.70;51934.00;0.17;90.53;;;;;24.10;17.10;;;;;;2277713;61;1099;-82
2023/08/15 04:11:17;8517.00;0.03;15.38;0.00;0.00;0.62;;;;;24.00;17.50;;;;;;2277928;61;1106;-82
2023/08/15 04:13:45;0.00;0.00;0.62;0.00;0.00;0.62;;;;;24.10;17.80;;;;;;2277696;61;1281;-81
2023/08/15 04:16:11;95531.00;0.32;165.86;0.00;0.00;0.62;;;;;24.00;17.70;;;;;;2281037;61;1931;-80
2023/08/15 04:18:38;233907.00;0.78;404.27;36945.00;0.12;64.60;;;;;24.00;17.80;;;;;;2281998;61;1223;-81
2023/08/15 04:21:05;0.00;0.00;0.62;0.00;0.00;0.62;;;;;23.90;18.40;;;;;;2276995;61;1106;-81
2023/08/15 04:23:32;45761.00;0.15;79.85;0.00;0.00;0.62;;;;;23.80;18.00;;;;;;2277367;61;1257;-81
2023/08/15 04:25:59;107455.00;0.36;186.44;15223.00;0.05;27.00;;;;;23.90;18.70;;;;;;2276986;61;1117;-81
2023/08/15 04:28:25;1818519.00;6.06;3258.10;79617.00;0.27;138.38;;;;;24.10;17.50;;;;;;2276705;61;1165;-81
2023/08/15 04:30:54;1449353.00;4.83;2548.18;127575.00;0.43;221.15;;;;;24.10;17.60;;;;;;2276948;61;1117;-82
2023/08/15 04:33:20;173247.00;0.58;299.86;70010.00;0.23;121.78;;;;;23.90;18.10;;;;;;2277059;61;1376;-81
2023/08/15 04:35:48;137623.00;0.46;238.47;41921.00;0.14;73.21;;;;;23.80;17.80;;;;;;2277189;61;1942;-82
2023/08/15 04:38:15;0.00;0.00;0.62;0.00;0.00;0.62;;;;;24.10;17.40;;;;;;2277109;61;1113;-82
2023/08/15 04:40:43;102852.00;0.34;178.49;36568.00;0.12;63.95;;;;;23.90;17.70;;;;;;2277591;61;1168;-82
2023/08/15 04:43:10;180297.00;0.60;312.00;0.00;0.00;0.62;;;;;23.90;18.10;;;;;;2277505;61;1364;-81
2023/08/15 04:45:40;96930.00;0.32;168.27;0.00;0.00;0.62;;;;;24.10;17.20;;;;;;2277285;61;1148;-81
2023/08/15 04:48:10;0.00;0.00;0.62;0.00;0.00;0.62;;;;;24.20;17.60;;;;;;2276688;61;1183;-81
2023/08/15 04:50:37;23896.00;0.08;42.02;0.00;0.00;0.62;;;;;24.20;17.50;;;;;;2276671;61;1067;-82
2023/08/15 04:53:04;0.00;0.00;0.62;0.00;0.00;0.62;;;;;24.10;17.70;;;;;;2277309;61;1345;-81
2023/08/15 04:55:31;117807.00;0.39;204.30;51641.00;0.17;90.02;;;;;24.10;17.80;;;;;;2277328;61;1917;-81
2023/08/15 04:57:58;927430.00;3.09;1604.35;102240.00;0.34;177.44;;;;;24.30;18.10;;;;;;2277289;61;1114;-81
2023/08/15 05:00:25;1482097.00;4.94;2609.48;131904.00;0.44;228.61;;;;;24.40;18.00;;;;;;2277462;61;1126;-80
2023/08/15 05:02:52;1193093.00;3.98;2077.74;126128.00;0.42;218.65;;;;;24.50;18.20;;;;;;2277370;61;1144;-82
2023/08/15 05:05:20;292207.00;0.97;504.52;88203.00;0.29;153.20;;;;;24.80;17.00;;;;;;2278141;61;1113;-82
2023/08/15 05:07:46;255644.00;0.85;441.66;65956.00;0.22;114.77;;;;;24.80;16.90;;;;;;2277869;61;1128;-82
2023/08/15 05:10:13;56353.00;0.19;98.17;0.00;0.00;0.62;;;;;24.80;16.60;;;;;;2277703;61;1195;-82
2023/08/15 05:12:40;18695.00;0.06;33.01;0.00;0.00;0.62;;;;;24.70;16.80;;;;;;2277569;61;1107;-81
2023/08/15 05:15:09;407378.00;1.36;702.49;72735.00;0.24;126.49;;;;;24.60;17.00;;;;;;2277535;61;2026;-82
2023/08/15 05:17:36;54322.00;0.18;94.66;0.00;0.00;0.62;;;;;24.90;16.50;;;;;;2277686;61;1254;-81
2023/08/15 05:20:03;118820.00;0.40;206.05;0.00;0.00;0.62;;;;;24.70;16.10;;;;;;2277362;61;1136;-81
2023/08/15 05:22:32;0.00;0.00;0.62;0.00;0.00;0.62;;;;;24.50;18.00;;;;;;2277624;61;1062;-82
2023/08/15 05:24:59;23697.00;0.08;41.67;0.00;0.00;0.62;;;;;24.40;18.90;;;;;;2277132;61;1337;-82
2023/08/15 05:27:26;29382.00;0.10;51.51;0.00;0.00;0.62;;;;;24.40;19.10;;;;;;2278178;61;1164;-82
2023/08/15 05:29:53;0.00;0.00;0.62;0.00;0.00;0.62;;;;;24.20;19.30;;;;;;2277911;61;1144;-82
2023/08/15 05:32:20;23034.00;0.08;40.52;0.00;0.00;0.62;;;;;24.40;20.20;;;;;;2278094;61;1167;-82
2023/08/15 05:34:47;0.00;0.00;0.62;0.00;0.00;0.62;;;;;24.60;19.00;;;;;;2278096;61;1320;-82
2023/08/15 05:37:14;838578.00;2.80;1448.49;14929.00;0.05;26.49;;;;;24.90;18.00;;;;;;2277725;61;1936;-81
2023/08/15 05:39:42;1297801.00;4.33;2268.08;30453.00;0.10;53.37;;;;;25.30;17.00;;;;;;2278007;61;1147;-81
2023/08/15 05:42:08;1511726.00;5.04;2665.20;119203.00;0.40;206.71;;;;;25.40;16.00;;;;;;2277976;61;1077;-82
2023/08/15 05:44:35;410474.00;1.37;707.81;85589.00;0.29;148.69;;;;;25.60;16.00;;;;;;2277771;61;1377;-81
2023/08/15 05:47:03;460863.00;1.54;794.47;153797.00;0.51;266.35;;;;;25.70;15.50;;;;;;2278019;61;1154;-81
2023/08/15 05:49:30;352292.00;1.17;607.80;97923.00;0.33;169.99;;;;;26.00;16.40;;;;;;2278752;61;1082;-81
2023/08/15 05:51:56;0.00;0.00;0.62;0.00;0.00;0.62;;;;;26.10;14.00;;;;;;2277970;61;1164;-80
2023/08/15 05:54:23;0.00;0.00;0.62;0.00;0.00;0.62;;;;;26.50;12.80;;;;;;2277346;61;1265;-83
2023/08/15 05:56:51;0.00;0.00;0.62;0.00;0.00;0.62;;;;;26.50;12.60;;;;;;2277368;61;1996;-82
2023/08/15 05:59:18;139745.00;0.47;242.13;0.00;0.00;0.62;;;;;26.60;11.40;;;;;;2283283;60;1110;-85
2023/08/15 06:01:46;1328705.00;4.43;2324.74;93217.00;0.31;161.86;;;;;26.80;13.40;;;;;;2285014;60;1188;-86
2023/08/15 06:04:13;1271457.00;4.24;2219.96;52007.00;0.17;90.66;;;;;27.20;13.90;;;;;;2284865;60;1269;-85
2023/08/15 06:06:40;499242.00;1.66;860.52;67003.00;0.22;116.58;;;;;27.50;11.90;;;;;;2284609;60;1944;-85
2023/08/15 06:09:07;220267.00;0.73;380.80;69442.00;0.23;120.80;;;;;27.40;9.90;;;;;;2284800;60;1172;-85
2023/08/15 06:11:34;399020.00;1.33;688.12;70093.00;0.23;121.92;;;;;27.20;9.80;;;;;;2284647;60;1158;-85
2023/08/15 06:14:02;996039.00;3.32;1725.46;151053.00;0.50;261.62;;;;;27.50;9.50;;;;;;2284445;60;1493;-86
2023/08/15 06:16:29;899726.00;3.00;1555.64;22654.00;0.08;39.87;;;;;27.30;11.10;;;;;;2284670;60;2004;-87
2023/08/15 06:18:56;193243.00;0.64;334.29;0.00;0.00;0.62;;;;;27.30;9.70;;;;;;2285031;60;1106;-85
2023/08/15 06:21:23;1591299.00;5.30;2816.12;159169.00;0.53;275.61;;;;;27.30;11.30;;;;;;2284622;60;1463;-87
2023/08/15 06:23:50;177508.00;0.59;307.20;30025.00;0.10;52.63;;;;;27.80;12.90;;;;;;2284664;60;1447;-86
2023/08/15 06:26:17;116863808.00;389.55;64649228.00;0.00;0.00;0.62;;;;;28.90;12.00;;;;;;2284258;61;1542;-85
2023/08/15 06:28:44;27817.00;0.09;48.80;0.00;0.00;0.62;;;;;30.40;5.80;;;;;;2284767;60;1231;-85
2023/08/15 06:31:12;656696.00;2.19;1132.22;78320.00;0.26;136.14;;;;;31.20;1.70;;;;;;2284758;61;1097;-86
2023/08/15 06:33:39;1393353.00;4.64;2444.00;79822.00;0.27;138.73;;;;;31.30;1.10;;;;;;2284548;61;2156;-86
2023/08/15 06:36:06;1584223.00;5.28;2802.62;191284.00;0.64;330.92;;;;;30.70;1.30;;;;;;2284714;60;2011;-86
2023/08/15 06:38:33;938691.00;3.13;1624.18;112660.00;0.38;195.42;;;;;29.90;4.80;;;;;;2285027;60;1158;-87
2023/08/15 06:41:00;170456.00;0.57;295.05;68086.00;0.23;118.45;;;;;29.70;6.00;;;;;;2284990;60;1126;-86
2023/08/15 06:43:27;996717.00;3.32;1726.66;87561.00;0.29;152.10;;;;;29.80;5.30;;;;;;2284582;60;1662;-86
2023/08/15 06:45:53;357064.00;1.19;616.00;0.00;0.00;0.62;;;;;30.00;4.60;;;;;;2284539;60;1336;-87
2023/08/15 06:48:22;95025.00;0.32;164.98;0.00;0.00;0.62;;;;;30.40;5.90;;;;;;2284866;60;1425;-86
2023/08/15 06:50:48;1462313.00;4.87;2572.40;73908.00;0.25;128.51;;;;;30.80;1.50;;;;;;2284299;60;1398;-86
2023/08/15 06:53:15;112489.00;0.37;195.12;0.00;0.00;0.62;;;;;30.90;1.90;;;;;;2285061;60;1328;-84
2023/08/15 06:55:42;77774.00;0.26;135.19;0.00;0.00;0.62;;;;;31.10;1.70;;;;;;2284806;60;1947;-85
2023/08/15 10:11:21;1361379.00;4.54;2384.88;44121.00;0.15;77.02;;;;;34.20;1.00;;;;;;2348941;40;3458;-90
2023/08/15 11:37:55;1626405.00;5.42;2883.31;92919.00;0.31;161.35;;;;;33.90;1.00;;;;;;2282942;61;1941;-91
2023/08/15 12:43:05;2428748.00;8.10;4545.07;98785.00;0.33;171.47;;;;;32.40;1.00;;;;;;1530503;40;3408;-91
2023/08/15 12:58:06;1128880.00;3.76;1962.15;58751.00;0.20;102.32;;;;;33.80;1.00;;;;;;2340327;40;3490;-89
2023/08/15 13:08:04;1429650.00;4.77;2511.43;86890.00;0.29;150.94;;;;;34.20;1.00;;;;;;2333259;40;3515;-89
2023/08/15 13:10:35;1095226.00;3.65;1901.89;163671.00;0.55;283.36;;;;;34.20;1.00;;;;;;2281198;61;1526;-89
2023/08/15 13:18:25;489784.00;1.63;844.24;8022.00;0.03;14.52;;;;;34.10;1.00;;;;;;925365;39;3170;-88
2023/08/15 13:25:58;1031499.00;3.44;1788.34;0.00;0.00;0.62;;;;;34.20;1.00;;;;;;2076516;39;3540;-88
2023/08/15 13:33:38;1536337.00;5.12;2711.68;23393.00;0.08;41.15;;;;;34.10;1.00;;;;;;2311005;40;3438;-88
2023/08/15 13:38:41;895861.00;2.99;1548.85;0.00;0.00;0.62;;;;;33.30;1.00;;;;;;2302875;39;3471;-88
2023/08/15 13:43:40;624457.00;2.08;1076.47;0.00;0.00;0.62;;;;;33.30;1.00;;;;;;1980830;56;3572;-88
2023/08/15 14:13:56;655209.00;2.18;1129.65;0.00;0.00;0.62;;;;;33.30;1.00;;;;;;2286592;60;1422;-87
2023/08/15 14:23:55;762076.00;2.54;1315.06;0.00;0.00;0.62;;;;;33.80;1.00;;;;;;2289841;56;3663;-88
2023/08/15 14:26:22;211458.00;0.70;365.64;0.00;0.00;0.62;;;;;34.10;1.00;;;;;;2309494;39;3785;-87
2023/08/15 14:28:49;135684.00;0.45;235.13;0.00;0.00;0.62;;;;;34.00;1.00;;;;;;2281032;61;1565;-88
2023/08/15 14:31:18;284313.00;0.95;490.95;46416.00;0.15;80.99;;;;;33.30;1.00;;;;;;2292093;39;3589;-88
2023/08/15 14:33:45;427399.00;1.42;736.91;59190.00;0.20;103.08;;;;;32.90;1.00;;;;;;2289862;60;1328;-89
2023/08/15 14:36:12;222899.00;0.74;385.33;0.00;0.00;0.62;;;;;33.10;1.00;;;;;;2289906;60;1913;-89
2023/08/15 14:38:39;273207.00;0.91;471.86;0.00;0.00;0.62;;;;;33.20;1.00;;;;;;2298372;40;3555;-86
2023/08/15 14:42:26;273057.00;0.91;471.60;0.00;0.00;0.62;;;;;33.50;1.00;;;;;;2294681;60;1306;-89
2023/08/15 14:44:53;130106.00;0.43;225.51;0.00;0.00;0.62;;;;;33.40;1.00;;;;;;2288487;60;1774;-88
2023/08/15 14:47:28;134404.00;0.45;232.92;0.00;0.00;0.62;;;;;33.30;1.00;;;;;;2288437;60;938;-87
2023/08/15 14:49:55;132795.00;0.44;230.15;0.00;0.00;0.62;;;;;33.70;1.00;;;;;;2288514;60;1040;-88
2023/08/15 14:52:22;72689.00;0.24;126.41;0.00;0.00;0.62;;;;;33.80;1.00;;;;;;2288420;60;1682;-88
2023/08/15 14:54:50;276483.00;0.92;477.49;23149.00;0.08;40.72;;;;;33.90;1.00;;;;;;2301781;40;3780;-87
2023/08/15 14:57:17;234915.00;0.78;406.00;21856.00;0.07;38.48;;;;;33.70;1.00;;;;;;2284387;60;1607;-88
2023/08/15 14:59:45;151310.00;0.50;262.07;0.00;0.00;0.62;;;;;33.30;1.00;;;;;;2289803;39;3585;-87
2023/08/15 15:02:13;132665.00;0.44;229.92;0.00;0.00;0.62;;;;;33.30;1.00;;;;;;2280228;60;1998;-87
2023/08/15 15:04:43;26543.00;0.09;46.60;0.00;0.00;0.62;;;;;33.10;1.00;;;;;;2280167;60;1321;-88
2023/08/15 15:09:41;1016070.00;3.39;1760.95;0.00;0.00;0.62;;;;;33.00;1.00;;;;;;2298598;40;3434;-89
2023/08/15 15:12:10;709937.00;2.37;1224.47;0.00;0.00;0.62;;;;;33.20;1.00;;;;;;2290067;55;3744;-88
2023/08/15 15:14:37;222479.00;0.74;384.61;0.00;0.00;0.62;;;;;33.00;1.00;;;;;;2275970;61;1826;-87
2023/08/15 15:19:38;1145565.00;3.82;1992.10;123303.00;0.41;213.78;;;;;33.10;1.00;;;;;;2301069;55;3694;-88
2023/08/15 15:24:33;1087624.00;3.63;1888.31;61439.00;0.20;106.96;;;;;33.30;1.00;;;;;;2290809;40;3548;-87
2023/08/15 15:27:00;1462388.00;4.87;2572.54;202919.00;0.68;350.95;;;;;33.30;1.00;;;;;;2284262;60;2380;-88
2023/08/15 15:29:27;847829.00;2.83;1464.67;102814.00;0.34;178.43;;;;;33.50;1.00;;;;;;2284365;60;1062;-89
2023/08/15 15:31:57;225689.00;0.75;390.13;64303.00;0.21;111.91;;;;;32.90;1.00;;;;;;2284213;60;1053;-89
2023/08/15 15:34:23;96256.00;0.32;167.11;0.00;0.00;0.62;;;;;32.80;1.00;;;;;;2284268;60;1733;-88
2023/08/15 15:36:52;106399.00;0.35;184.62;0.00;0.00;0.62;;;;;32.80;1.00;;;;;;2284290;60;1059;-91
2023/08/15 15:39:19;0.00;0.00;0.62;0.00;0.00;0.62;;;;;32.50;1.00;;;;;;2295798;40;3814;-88
2023/08/15 15:41:46;179235.00;0.60;310.17;0.00;0.00;0.62;;;;;32.30;1.00;;;;;;2280110;61;2008;-87
2023/08/15 15:44:13;59759.00;0.20;104.06;0.00;0.00;0.62;;;;;32.20;1.00;;;;;;2282363;60;1586;-86
2023/08/15 15:46:40;659447.00;2.20;1136.98;70472.00;0.23;122.58;;;;;31.90;1.00;;;;;;2284080;60;1576;-86
2023/08/15 15:49:07;65863.00;0.22;114.61;0.00;0.00;0.62;;;;;31.80;1.00;;;;;;2283485;55;3766;-87
2023/08/15 15:51:34;145250.00;0.48;251.62;0.00;0.00;0.62;;;;;31.90;1.00;;;;;;2279869;61;1096;-89
2023/08/15 15:54:02;215137.00;0.72;371.98;3653.00;0.01;6.95;;;;;32.00;1.00;;;;;;2279150;61;1396;-89
2023/08/15 15:56:30;497748.00;1.66;857.95;0.00;0.00;0.62;;;;;32.10;1.00;;;;;;2281299;61;1192;-89
2023/08/15 15:58:57;884222.00;2.95;1528.43;51700.00;0.17;90.13;;;;;32.20;1.00;;;;;;2281380;61;1642;-89
2023/08/15 16:01:24;971900.00;3.24;1682.77;15172.00;0.05;26.91;;;;;32.70;1.00;;;;;;2281283;61;1919;-89
2023/08/15 16:03:51;1481364.00;4.94;2608.10;74442.00;0.25;129.44;;;;;32.70;1.00;;;;;;2281566;61;1414;-90
2023/08/15 16:06:18;871207.00;2.90;1505.61;149956.00;0.50;259.73;;;;;32.70;1.00;;;;;;2281548;61;1071;-88
2023/08/15 16:08:45;618104.00;2.06;1065.49;36113.00;0.12;63.16;;;;;32.50;1.00;;;;;;2281443;61;1095;-88
2023/08/15 16:11:13;593345.00;1.98;1022.73;63482.00;0.21;110.50;;;;;32.50;1.00;;;;;;2284540;56;3767;-88
2023/08/15 16:13:40;324048.00;1.08;559.26;63871.00;0.21;111.17;;;;;32.30;1.00;;;;;;2278664;61;1330;-89
2023/08/15 16:23:31;461368.00;1.54;795.34;0.00;0.00;0.62;;;;;31.70;1.00;;;;;;2286068;39;3638;-87
2023/08/15 16:25:58;114204.00;0.38;198.08;0.00;0.00;0.62;;;;;31.80;1.00;;;;;;2282043;39;3589;-88
2023/08/15 16:28:26;66824.00;0.22;116.27;0.00;0.00;0.62;;;;;31.90;1.00;;;;;;2281447;61;1094;-90
2023/08/15 16:30:53;40790.00;0.14;71.26;0.00;0.00;0.62;;;;;32.20;1.00;;;;;;2281017;61;1479;-90
2023/08/15 16:33:20;112448.00;0.37;195.05;0.00;0.00;0.62;;;;;32.10;1.00;;;;;;2281368;61;1572;-87
2023/08/15 16:35:47;70788.00;0.24;123.12;0.00;0.00;0.62;;;;;32.50;1.00;;;;;;2281384;61;1114;-89
2023/08/15 16:38:13;119629.00;0.40;207.44;0.00;0.00;0.62;;;;;32.50;1.00;;;;;;2281432;61;1062;-86
2023/08/15 16:43:15;427938.00;1.43;737.84;0.00;0.00;0.62;;;;;32.10;1.00;;;;;;2275438;61;1312;-87
2023/08/15 16:45:45;156652.00;0.52;271.27;0.00;0.00;0.62;;;;;31.30;1.00;;;;;;2277073;61;1141;-89
2023/08/15 16:48:13;23064.00;0.08;40.58;0.00;0.00;0.62;;;;;30.40;1.00;;;;;;2277087;61;1577;-89
2023/08/15 16:50:41;447241.00;1.49;771.04;32192.00;0.11;56.38;;;;;29.90;1.00;;;;;;2283996;40;3817;-89
2023/08/15 16:53:09;533614.00;1.78;919.72;88502.00;0.30;153.72;;;;;29.80;1.00;;;;;;2277539;61;1300;-90
2023/08/15 16:55:37;868507.00;2.90;1500.87;93270.00;0.31;161.95;;;;;29.90;1.00;;;;;;2281218;61;2269;-88
2023/08/15 16:58:04;793334.00;2.64;1369.50;42363.00;0.14;73.98;;;;;29.80;1.00;;;;;;2288891;55;3742;-89